createdAt,value
2023-08-26T00:02:09.434Z,11.07
2023-08-26T00:05:11.440Z,10.63
2023-08-26T00:08:13.243Z,11.18
2023-08-26T00:11:15.081Z,10.43
2023-08-26T00:14:16.919Z,10.82
2023-08-26T00:17:19.098Z,10.23
2023-08-26T00:20:22.802Z,10.70
2023-08-26T00:23:24.908Z,10.52
2023-08-26T00:26:26.761Z,10.98
2023-08-26T00:29:28.641Z,11.35
2023-08-26T00:32:30.866Z,11.48
2023-08-26T00:35:32.765Z,11.38
2023-08-26T00:38:34.624Z,10.80
2023-08-26T00:41:36.517Z,11.77
2023-08-26T00:44:38.320Z,11.60
2023-08-26T00:47:40.965Z,12.00
2023-08-26T00:50:48.984Z,11.77
2023-08-26T00:53:50.964Z,10.73
2023-08-26T00:56:52.916Z,11.52
2023-08-26T00:59:54.955Z,11.07
2023-08-26T01:02:57.156Z,10.77
2023-08-26T01:05:59.097Z,10.75
2023-08-26T01:09:01.344Z,11.35
2023-08-26T01:12:27.529Z,11.10
2023-08-26T01:15:30.722Z,10.80
2023-08-26T01:18:32.750Z,11.15
2023-08-26T01:21:37.604Z,11.57
2023-08-26T01:24:42.269Z,12.13
2023-08-26T01:27:44.377Z,11.10
2023-08-26T01:30:46.849Z,11.40
2023-08-26T01:34:18.576Z,11.02
2023-08-26T01:37:21.806Z,10.60
2023-08-26T01:40:24.789Z,10.68
2023-08-26T01:43:27.384Z,9.88
2023-08-26T01:46:38.661Z,10.80
2023-08-26T01:49:40.696Z,10.85
2023-08-26T01:52:42.999Z,10.88
2023-08-26T01:55:46.095Z,11.10
2023-08-26T01:58:49.781Z,11.40
2023-08-26T02:01:51.687Z,10.45
2023-08-26T02:04:54.276Z,11.20
2023-08-26T02:07:56.488Z,11.05
2023-08-26T02:10:59.091Z,10.43
2023-08-26T02:14:01.135Z,10.05
2023-08-26T02:17:03.924Z,10.85
2023-08-26T02:20:08.642Z,10.50
2023-08-26T02:23:13.996Z,10.00
2023-08-26T02:26:15.924Z,10.68
2023-08-26T02:29:18.749Z,10.93
2023-08-26T02:32:20.583Z,9.82
2023-08-26T02:35:22.473Z,10.50
2023-08-26T02:38:24.295Z,10.48
2023-08-26T02:41:26.198Z,10.50
2023-08-26T02:44:28.090Z,9.57
2023-08-26T02:47:30.605Z,11.85
2023-08-26T02:50:35.536Z,11.25
2023-08-26T02:53:38.622Z,10.05
2023-08-26T02:56:40.527Z,11.35
2023-08-26T02:59:42.420Z,10.52
2023-08-26T03:02:44.339Z,9.82
2023-08-26T03:05:46.472Z,9.65
2023-08-26T03:08:48.401Z,9.88
2023-08-26T03:11:50.377Z,10.05
2023-08-26T03:14:53.864Z,10.70
2023-08-26T03:17:58.415Z,9.90
2023-08-26T03:21:08.373Z,10.25
2023-08-26T03:24:13.106Z,10.45
2023-08-26T03:27:15.012Z,10.43
2023-08-26T03:30:17.248Z,10.15
2023-08-26T03:33:19.562Z,9.82
2023-08-26T03:36:21.557Z,10.68
2023-08-26T03:39:23.439Z,9.10
2023-08-26T03:42:25.592Z,9.77
2023-08-26T03:45:31.007Z,9.93
2023-08-26T03:48:34.354Z,10.43
2023-08-26T03:51:36.237Z,10.48
2023-08-26T03:54:38.132Z,9.57
2023-08-26T03:57:39.991Z,9.73
2023-08-26T04:00:42.340Z,9.82
2023-08-26T04:03:47.041Z,9.57
2023-08-26T04:06:49.106Z,10.45
2023-08-26T04:09:51.013Z,10.30
2023-08-26T04:12:53.086Z,10.02
2023-08-26T04:15:59.721Z,9.85
2023-08-26T04:19:01.791Z,9.43
2023-08-26T04:22:03.766Z,9.52
2023-08-26T04:25:08.035Z,9.05
2023-08-26T04:28:09.985Z,9.45
2023-08-26T04:31:13.018Z,9.50
2023-08-26T04:34:14.971Z,8.95
2023-08-26T04:37:16.758Z,8.95
2023-08-26T04:40:19.857Z,9.40
2023-08-26T04:43:21.777Z,9.35
2023-08-26T04:46:25.384Z,9.05
2023-08-26T04:49:27.503Z,9.57
2023-08-26T04:52:29.328Z,9.10
2023-08-26T04:55:34.019Z,10.30
2023-08-26T04:58:38.605Z,9.00
2023-08-26T05:01:40.784Z,9.75
2023-08-26T05:04:42.688Z,9.07
2023-08-26T05:07:44.566Z,8.43
2023-08-26T05:10:48.206Z,8.93
2023-08-26T05:13:50.063Z,8.23
2023-08-26T05:16:52.466Z,8.48
2023-08-26T05:19:54.383Z,8.32
2023-08-26T05:22:58.082Z,8.57
2023-08-26T05:26:00.005Z,8.73
2023-08-26T05:29:02.498Z,8.18
2023-08-26T05:32:04.614Z,8.35
2023-08-26T05:35:06.828Z,8.35
2023-08-26T05:38:08.776Z,8.07
2023-08-26T05:41:13.305Z,8.50
2023-08-26T05:44:15.489Z,8.32
2023-08-26T05:47:17.390Z,8.25
2023-08-26T05:50:19.537Z,7.20
2023-08-26T05:53:21.379Z,7.43
2023-08-26T05:56:23.272Z,7.78
2023-08-26T05:59:25.106Z,8.13
2023-08-26T06:02:27.189Z,7.85
2023-08-26T06:05:29.130Z,7.95
2023-08-26T06:08:31.215Z,7.05
2023-08-26T06:11:33.177Z,7.13
2023-08-26T06:14:35.472Z,7.63
2023-08-26T06:17:37.394Z,7.28
2023-08-26T06:20:39.319Z,7.78
2023-08-26T06:23:41.346Z,7.82
2023-08-26T06:26:45.237Z,7.22
2023-08-26T06:29:55.266Z,7.60
2023-08-26T06:32:57.790Z,7.40
2023-08-26T06:36:01.996Z,7.10
2023-08-26T06:39:05.199Z,8.00
2023-08-26T06:42:07.526Z,7.72
2023-08-26T06:45:16.809Z,7.25
2023-08-26T06:48:19.931Z,7.65
2023-08-26T06:51:21.819Z,7.95
2023-08-26T06:54:23.742Z,7.75
2023-08-26T06:57:26.153Z,7.82
2023-08-26T07:00:28.104Z,7.50
2023-08-26T07:03:30.375Z,7.07
2023-08-26T07:06:32.805Z,7.10
2023-08-26T07:09:34.635Z,7.53
2023-08-26T07:12:39.225Z,7.13
2023-08-26T07:15:41.642Z,6.93
2023-08-26T07:18:43.629Z,6.82
2023-08-26T07:21:45.567Z,7.25
2023-08-26T07:24:48.053Z,6.63
2023-08-26T07:27:49.919Z,6.57
2023-08-26T07:30:53.056Z,6.10
2023-08-26T07:33:54.872Z,6.30
2023-08-26T07:36:57.034Z,6.57
2023-08-26T07:40:02.334Z,5.97
2023-08-26T07:43:04.982Z,6.40
2023-08-26T07:49:11.763Z,7.40
2023-08-26T07:52:14.643Z,6.68
2023-08-26T07:55:16.746Z,7.30
2023-08-26T07:58:18.570Z,6.80
2023-08-26T08:01:21.729Z,7.40
2023-08-26T08:04:23.672Z,6.43
2023-08-26T08:07:25.639Z,6.22
2023-08-26T08:10:27.591Z,5.97
2023-08-26T08:13:29.468Z,6.57
2023-08-26T08:16:31.330Z,6.03
2023-08-26T08:19:38.710Z,6.50
2023-08-26T08:22:42.903Z,5.78
2023-08-26T08:25:44.976Z,5.80
2023-08-26T08:28:46.863Z,6.13
2023-08-26T08:31:48.762Z,5.97
2023-08-26T08:34:50.916Z,5.75
2023-08-26T08:37:53.109Z,6.22
2023-08-26T08:40:55.252Z,5.78
2023-08-26T08:44:03.594Z,6.38
2023-08-26T08:47:06.058Z,6.07
2023-08-26T08:50:09.549Z,5.60
2023-08-26T08:53:14.096Z,5.53
2023-08-26T08:56:20.576Z,6.15
2023-08-26T08:59:23.380Z,6.03
2023-08-26T09:02:28.052Z,6.15
2023-08-26T09:05:30.396Z,5.80
2023-08-26T09:08:33.074Z,5.32
2023-08-26T09:11:35.748Z,5.38
2023-08-26T09:14:39.908Z,5.15
2023-08-26T09:17:48.878Z,4.55
2023-08-26T09:20:50.798Z,5.60
2023-08-26T09:23:52.727Z,7.07
2023-08-26T09:27:02.104Z,6.28
2023-08-26T09:30:05.417Z,5.95
2023-08-26T09:33:15.454Z,5.50
2023-08-26T09:39:23.431Z,5.55
2023-08-26T09:42:25.645Z,5.80
2023-08-26T09:45:27.635Z,6.15
2023-08-26T09:48:29.607Z,5.57
2023-08-26T09:51:32.083Z,4.97
2023-08-26T09:54:35.714Z,4.63
2023-08-26T09:57:37.824Z,5.03
2023-08-26T10:00:39.816Z,4.95
2023-08-26T10:03:45.760Z,5.30
2023-08-26T10:06:56.888Z,5.30
2023-08-26T10:10:09.228Z,5.35
2023-08-26T10:13:11.527Z,5.00
2023-08-26T10:16:22.941Z,4.82
2023-08-26T10:19:31.326Z,7.28
2023-08-26T10:22:37.461Z,6.97
2023-08-26T10:25:41.347Z,6.82
2023-08-26T10:28:44.256Z,6.53
2023-08-26T10:31:48.104Z,7.38
2023-08-26T10:35:00.433Z,7.75
2023-08-26T10:38:10.722Z,6.90
2023-08-26T10:41:13.220Z,6.32
2023-08-26T10:44:15.460Z,5.85
2023-08-26T10:47:40.168Z,6.10
2023-08-26T10:50:48.000Z,4.88
2023-08-26T10:53:50.101Z,5.05
2023-08-26T10:57:08.912Z,4.15
2023-08-26T11:00:14.452Z,4.30
2023-08-26T11:03:19.771Z,5.10
2023-08-26T11:06:23.638Z,5.80
2023-08-26T11:09:30.355Z,4.72
2023-08-26T11:12:37.088Z,6.68
2023-08-26T11:15:43.495Z,4.88
2023-08-26T11:18:46.936Z,4.55
2023-08-26T11:21:48.929Z,4.50
2023-08-26T11:24:52.528Z,4.70
2023-08-26T11:28:06.648Z,4.75
2023-08-26T11:31:08.545Z,5.00
2023-08-26T11:34:10.686Z,4.30
2023-08-26T11:37:12.566Z,4.55
2023-08-26T11:40:15.404Z,4.60
2023-08-26T11:43:19.652Z,3.95
2023-08-26T11:46:21.905Z,7.78
2023-08-26T11:49:24.793Z,4.88
2023-08-26T11:52:36.746Z,4.60
2023-08-26T11:55:40.278Z,4.47
2023-08-26T11:58:42.192Z,4.60
2023-08-26T12:01:44.101Z,4.13
2023-08-26T12:04:46.886Z,4.32
2023-08-26T12:07:51.172Z,4.38
2023-08-26T12:10:54.558Z,4.40
2023-08-26T12:13:56.612Z,4.47
2023-08-26T12:17:05.870Z,4.15
2023-08-26T12:20:20.698Z,4.18
2023-08-26T12:23:22.921Z,4.18
2023-08-26T12:26:24.885Z,4.20
2023-08-26T12:29:26.761Z,3.92
2023-08-26T12:32:29.050Z,3.88
2023-08-26T12:35:32.428Z,4.30
2023-08-26T12:38:35.026Z,4.28
2023-08-26T12:41:36.889Z,4.10
2023-08-26T12:44:39.925Z,3.80
2023-08-26T12:47:44.086Z,4.90
2023-08-26T12:50:46.848Z,5.63
2023-08-26T12:53:48.865Z,4.10
2023-08-26T12:56:51.203Z,3.80
2023-08-26T12:59:53.062Z,3.85
2023-08-26T13:02:55.133Z,3.58
2023-08-26T13:05:57.143Z,3.58
2023-08-26T13:08:59.124Z,3.92
2023-08-26T13:12:01.075Z,4.00
2023-08-26T13:15:03.474Z,3.63
2023-08-26T13:18:05.704Z,3.65
2023-08-26T13:21:07.606Z,4.30
2023-08-26T13:24:10.756Z,3.80
2023-08-26T13:27:12.772Z,4.63
2023-08-26T13:30:14.691Z,3.67
2023-08-26T13:33:16.614Z,3.92
2023-08-26T13:36:19.028Z,3.80
2023-08-26T13:39:20.963Z,4.38
2023-08-26T13:42:22.855Z,4.47
2023-08-26T13:45:24.879Z,4.60
2023-08-26T13:48:26.913Z,4.25
2023-08-26T13:51:29.985Z,4.38
2023-08-26T13:54:31.861Z,4.97
2023-08-26T13:57:34.610Z,4.75
2023-08-26T14:00:36.597Z,4.30
2023-08-26T14:03:38.936Z,4.22
2023-08-26T14:06:41.311Z,4.60
2023-08-26T14:09:44.429Z,3.60
2023-08-26T14:12:46.641Z,4.10
2023-08-26T14:15:50.080Z,4.38
2023-08-26T14:18:52.087Z,4.70
2023-08-26T14:21:54.073Z,4.15
2023-08-26T14:24:56.063Z,4.60
2023-08-26T14:27:59.882Z,4.90
2023-08-26T14:31:04.556Z,4.90
2023-08-26T14:34:06.529Z,4.68
2023-08-26T14:37:08.471Z,4.20
2023-08-26T14:40:10.649Z,4.15
2023-08-26T14:43:13.849Z,4.50
2023-08-26T14:46:15.862Z,4.65
2023-08-26T14:49:18.708Z,4.25
2023-08-26T14:52:20.591Z,3.83
2023-08-26T14:55:22.579Z,4.00
2023-08-26T14:58:25.902Z,3.90
2023-08-26T15:01:27.981Z,4.20
2023-08-26T15:04:29.875Z,3.90
2023-08-26T15:07:31.739Z,4.35
2023-08-26T15:10:33.642Z,3.83
2023-08-26T15:13:35.843Z,4.38
2023-08-26T15:16:37.836Z,4.22
2023-08-26T15:19:39.924Z,4.07
2023-08-26T15:22:41.819Z,3.50
2023-08-26T15:25:48.243Z,4.18
2023-08-26T15:28:50.251Z,4.50
2023-08-26T15:31:52.273Z,4.25
2023-08-26T15:34:54.343Z,4.18
2023-08-26T15:37:57.050Z,4.20
2023-08-26T15:41:04.580Z,4.07
2023-08-26T15:44:06.843Z,3.97
2023-08-26T15:47:09.079Z,3.97
2023-08-26T15:50:11.449Z,4.10
2023-08-26T15:53:14.851Z,4.20
2023-08-26T15:56:16.956Z,4.47
2023-08-26T15:59:19.093Z,4.78
2023-08-26T16:02:21.219Z,4.70
2023-08-26T16:05:23.571Z,4.80
2023-08-26T16:08:25.581Z,5.30
2023-08-26T16:11:31.689Z,4.93
2023-08-26T16:14:36.250Z,5.03
2023-08-26T16:17:38.328Z,4.97
2023-08-26T16:20:41.349Z,5.85
2023-08-26T16:23:43.289Z,5.85
2023-08-26T16:26:45.482Z,6.00
2023-08-26T16:29:47.949Z,5.82
2023-08-26T16:32:51.494Z,6.13
2023-08-26T16:35:53.505Z,6.38
2023-08-26T16:38:55.445Z,6.78
2023-08-26T16:41:57.354Z,6.22
2023-08-26T16:44:59.267Z,6.20
2023-08-26T16:48:01.255Z,6.15
2023-08-26T16:51:03.445Z,5.80
2023-08-26T16:54:06.355Z,6.35
2023-08-26T16:57:09.185Z,7.00
2023-08-26T17:00:11.858Z,6.82
2023-08-26T17:03:14.318Z,7.00
2023-08-26T17:06:16.405Z,7.22
2023-08-26T17:09:18.418Z,7.55
2023-08-26T17:12:20.323Z,7.28
2023-08-26T17:15:22.317Z,6.55
2023-08-26T17:18:24.922Z,6.10
2023-08-26T17:21:26.849Z,7.05
2023-08-26T17:24:28.855Z,6.95
2023-08-26T17:27:33.414Z,7.53
2023-08-26T17:30:35.891Z,7.15
2023-08-26T17:33:39.431Z,7.65
2023-08-26T17:36:41.349Z,8.13
2023-08-26T17:39:44.432Z,7.78
2023-08-26T17:42:49.412Z,7.57
2023-08-26T17:45:54.775Z,7.75
2023-08-26T17:48:56.878Z,7.43
2023-08-26T17:51:58.965Z,8.15
2023-08-26T17:55:01.017Z,7.43
2023-08-26T17:58:03.762Z,7.60
2023-08-26T18:01:05.890Z,8.00
2023-08-26T18:04:08.357Z,8.00
2023-08-26T18:07:10.248Z,7.93
2023-08-26T18:10:12.218Z,7.00
2023-08-26T18:13:14.777Z,6.88
2023-08-26T18:16:16.852Z,7.45
2023-08-26T18:19:18.912Z,8.00
2023-08-26T18:22:20.810Z,8.30
2023-08-26T18:25:22.935Z,8.13
2023-08-26T18:28:24.798Z,9.43
2023-08-26T18:31:26.821Z,10.00
2023-08-26T18:34:28.819Z,9.52
2023-08-26T18:37:32.574Z,10.23
2023-08-26T18:40:34.397Z,9.40
2023-08-26T18:43:36.367Z,9.85
2023-08-26T18:46:38.565Z,10.00
2023-08-26T18:49:40.470Z,9.55
2023-08-26T18:52:42.502Z,9.13
2023-08-26T18:55:50.498Z,9.70
2023-08-26T18:58:52.373Z,10.80
2023-08-26T19:01:54.295Z,9.75
2023-08-26T19:04:56.428Z,10.32
2023-08-26T19:07:58.289Z,10.23
2023-08-26T19:11:00.161Z,9.32
2023-08-26T19:14:02.100Z,9.18
2023-08-26T19:17:04.172Z,9.77
2023-08-26T19:20:07.002Z,9.35
2023-08-26T19:23:08.925Z,9.85
2023-08-26T19:26:11.461Z,10.52
2023-08-26T19:29:13.363Z,9.70
2023-08-26T19:32:15.285Z,10.73
2023-08-26T19:35:17.288Z,10.77
2023-08-26T19:38:19.264Z,10.48
2023-08-26T19:41:21.275Z,10.40
2023-08-26T19:44:23.375Z,10.73
2023-08-26T19:47:25.330Z,10.35
2023-08-26T19:50:27.252Z,12.40
2023-08-26T19:53:29.174Z,11.55
2023-08-26T19:56:31.105Z,11.13
2023-08-26T19:59:33.000Z,11.18
2023-08-26T20:02:34.923Z,11.20
2023-08-26T20:05:37.294Z,11.52
2023-08-26T20:08:39.176Z,12.85
2023-08-26T20:11:41.092Z,12.00
2023-08-26T20:14:43.126Z,13.35
2023-08-26T20:17:45.040Z,13.93
2023-08-26T20:20:47.026Z,13.60
2023-08-26T20:23:48.923Z,13.63
2023-08-26T20:26:50.861Z,13.02
2023-08-26T20:29:52.983Z,13.63
2023-08-26T20:32:54.872Z,13.30
2023-08-26T20:35:57.794Z,12.48
2023-08-26T20:38:59.776Z,13.48
2023-08-26T20:42:04.143Z,12.40
2023-08-26T20:45:07.690Z,12.77
2023-08-26T20:48:09.564Z,13.25
2023-08-26T20:51:11.438Z,12.52
2023-08-26T20:54:13.406Z,12.73
2023-08-26T20:57:15.279Z,12.02
2023-08-26T21:00:17.293Z,12.40
2023-08-26T21:03:19.243Z,12.57
2023-08-26T21:06:21.305Z,12.60
2023-08-26T21:09:23.273Z,12.55
2023-08-26T21:12:25.660Z,12.10
2023-08-26T21:15:28.120Z,11.98
2023-08-26T21:18:30.162Z,12.27
2023-08-26T21:21:32.054Z,12.05
2023-08-26T21:24:33.967Z,12.82
2023-08-26T21:27:37.458Z,13.35
2023-08-26T21:30:39.438Z,12.00
2023-08-26T21:33:41.737Z,11.43
2023-08-26T21:36:43.739Z,11.57
2023-08-26T21:39:46.852Z,11.73
2023-08-26T21:42:48.749Z,12.30
2023-08-26T21:45:51.823Z,11.73
2023-08-26T21:48:53.739Z,12.23
2023-08-26T21:51:55.597Z,11.77
2023-08-26T21:54:57.462Z,11.23
2023-08-26T21:58:07.290Z,11.30
2023-08-26T22:01:09.989Z,11.85
2023-08-26T22:04:12.085Z,11.43
2023-08-26T22:07:14.290Z,11.30
2023-08-26T22:10:16.187Z,10.40
2023-08-26T22:13:18.702Z,10.80
2023-08-26T22:16:20.789Z,10.05
2023-08-26T22:19:23.224Z,10.65
2023-08-26T22:22:25.106Z,10.93
2023-08-26T22:25:26.979Z,10.70
2023-08-26T22:28:28.956Z,10.43
2023-08-26T22:31:31.111Z,9.48
2023-08-26T22:34:33.253Z,10.45
2023-08-26T22:37:35.808Z,10.27
2023-08-26T22:40:37.637Z,9.48
2023-08-26T22:43:39.431Z,9.85
2023-08-26T22:46:41.328Z,10.27
2023-08-26T22:49:43.238Z,10.65
2023-08-26T22:52:45.080Z,10.63
2023-08-26T22:55:47.090Z,11.02
2023-08-26T22:58:49.716Z,9.73
2023-08-26T23:01:51.625Z,10.30
2023-08-26T23:04:53.539Z,10.30
2023-08-26T23:07:55.535Z,10.93
2023-08-26T23:10:59.378Z,9.93
2023-08-26T23:14:01.191Z,9.82
2023-08-26T23:17:03.415Z,10.35
2023-08-26T23:20:08.955Z,9.48
2023-08-26T23:23:11.164Z,9.68
2023-08-26T23:26:12.979Z,9.02
2023-08-26T23:29:15.285Z,9.32
2023-08-26T23:32:17.533Z,9.80
2023-08-26T23:35:19.677Z,9.27
2023-08-26T23:38:21.591Z,10.20
2023-08-26T23:41:23.429Z,8.80
2023-08-26T23:44:25.351Z,9.40
2023-08-26T23:47:30.311Z,9.23
2023-08-26T23:50:32.210Z,9.02
2023-08-26T23:53:34.201Z,10.13
2023-08-26T23:56:36.164Z,9.13
2023-08-26T23:59:38.882Z,9.93
